Good Hope, Illinois
Current Conditions -  °F | °C
As of 2:35 AM on Thursday 23 Oct 2014 (Local Time) from KMQB Reporting Station
Clear Clear  
Wind Chill: 36°   Ceiling: Unl
Heat Index: 40°   Visibility: 10mi
Dew Point: 37°   Wind: 6mph
Humidity: 88%   Direction: 160°SSE
Pressure: 30.22"   Gusts: NA
Location:  40.56°N, 90.67°W
Report Text: KMQB 230735Z AUTO 16005KT 10SM CLR 05/03 A3022 RMK AO2 T00450026
Loading
Personal Weather Stations






























Interactive Weather Map
Tropical Storm Tracking
New forecast layout! Learn more

10-Day Weather Forecast

Advertisements
Track Severe Weather on mobile